48X weather

Airport Manatee Airport
Palmetto, Florida, United States

Public forecast

Using degrees Fahrenheit for public forecast. Weather courtesy of forecast.io.

Closest aviation weather report (METAR) to Airport Manatee Airport

Closest report is Albert Whitted Airport, 9.3 nm (17.2 km) NW. Retrieved 2019/12/09 11:53 UTC (50 minutes ago):

KSPG 091153Z 14010KT 10SM CLR 19/17 A3009 RMK AO2 SLP189 T01890167 10200 20189 53003

Closest aviation forecast (TAF) to Airport Manatee Airport

Closest forecast is Mac Dill Air Force Base, 12.4 nm (23.0 km) N. Retrieved 2019/12/09 09:51 UTC (3 hours ago):

TAF KMCF 090900Z 0909/1015 13006KT 9999 SCT025 QNH3010INS BECMG 0912/0913 13009KT 9999 FEW020 SCT100 QNH3015INS BECMG 1012/1013 11006KT 9999 BKN030 QNH3011INS TX26/0920Z TN16/1008Z